.
WxDataArchive / Data Records for 2009-11-03
2009-11-02 November 2009 2009-11-04

Data Records for Tuesday, 03 November 2009

Time	Temp	Chill	HIndex	Humid	Dewpt	 Wind 	HiWind	WindDir	Rain 	Barom 
-----	----	-----	------	-----	-----	------	------	-------	-----	----- 
00:00	40.9	40.9	40.9	88	37.6	0	1	315	0.00	30.184 
00:05	40.9	40.9	40.9	88	37.6	0	1	315	0.00	30.184 
00:10	40.9	40.9	40.9	88	37.6	0	0	---	0.00	30.184 
00:15	40.9	40.9	40.9	88	37.6	0	0	---	0.00	30.183 
00:20	40.8	40.8	40.8	88	37.5	0	0	---	0.00	30.183 
00:25	40.5	40.5	40.5	88	37.2	0	0	---	0.00	30.183 
00:30	40.2	40.2	40.2	88	36.9	0	0	---	0.00	30.185 
00:35	39.9	39.9	39.9	88	36.6	0	0	---	0.00	30.185 
00:40	39.6	39.6	39.6	88	36.3	0	0	---	0.00	30.185 
00:45	39.3	39.3	39.3	88	36.0	0	0	---	0.00	30.188 
00:50	39.1	39.1	39.1	89	36.1	0	0	---	0.00	30.188 
00:55	38.8	38.8	38.8	89	35.8	0	0	---	0.00	30.188 
01:00	38.5	38.5	38.5	89	35.5	0	0	---	0.00	30.187 
01:05	38.2	38.2	38.2	89	35.2	0	0	---	0.00	30.187 
01:10	37.9	37.9	37.9	89	35.0	0	0	---	0.00	30.187 
01:15	37.6	37.6	37.6	90	34.9	0	0	---	0.00	30.184 
01:20	37.5	37.5	37.5	90	34.8	0	0	---	0.00	30.184 
01:25	37.3	37.3	37.3	90	34.6	0	0	---	0.00	30.184 
01:30	37.2	37.2	37.2	91	34.8	0	1	315	0.00	30.189 
01:35	37.5	37.5	37.5	91	35.1	0	1	315	0.00	30.189 
01:40	37.6	37.6	37.6	92	35.5	0	0	---	0.00	30.189 
01:45	37.8	37.8	37.8	92	35.7	0	1	315	0.00	30.187 
01:50	38.2	38.2	38.2	92	36.1	0	1	315	0.00	30.187 
01:55	38.2	38.2	38.2	92	36.1	0	1	315	0.00	30.187 
02:00	38.2	38.2	38.2	92	36.1	0	0	---	0.00	30.188 
02:05	38.0	38.0	38.0	92	35.9	0	1	315	0.00	30.188 
02:10	38.0	38.0	38.0	92	35.9	0	1	315	0.00	30.188 
02:15	38.2	38.2	38.2	92	36.1	0	1	315	0.00	30.188 
02:20	38.3	38.3	38.3	92	36.2	0	1	315	0.00	30.188 
02:25	38.3	38.3	38.3	92	36.2	0	1	315	0.00	30.188 
02:30	38.2	38.2	38.2	91	35.8	0	1	315	0.00	30.188 
02:35	38.2	38.2	38.2	91	35.8	0	1	315	0.00	30.188 
02:40	38.2	38.2	38.2	91	35.8	0	1	315	0.00	30.188 
02:45	38.0	38.0	38.0	91	35.6	0	1	315	0.00	30.192 
02:50	38.0	38.0	38.0	91	35.6	0	1	315	0.00	30.192 
02:55	37.9	37.9	37.9	90	35.2	0	1	315	0.00	30.192 
03:00	37.9	37.9	37.9	90	35.2	0	1	315	0.00	30.196 
03:05	37.9	37.9	37.9	90	35.2	0	1	315	0.00	30.196 
03:10	37.9	37.9	37.9	90	35.2	0	1	315	0.00	30.196 
03:15	37.9	37.9	37.9	89	35.0	0	1	315	0.00	30.198 
03:20	37.8	37.8	37.8	89	34.9	0	1	315	0.00	30.198 
03:25	37.8	37.8	37.8	88	34.6	0	0	---	0.00	30.198 
03:30	37.5	37.5	37.5	88	34.3	0	0	---	0.00	30.197 
03:35	37.3	37.3	37.3	88	34.1	0	1	315	0.00	30.197 
03:40	37.2	37.2	37.2	88	34.0	0	1	315	0.00	30.197 
03:45	37.0	37.0	37.0	88	33.8	0	1	315	0.00	30.200 
03:50	37.0	37.0	37.0	88	33.8	0	1	315	0.00	30.200 
03:55	37.0	37.0	37.0	88	33.8	0	1	315	0.00	30.200 
04:00	37.0	37.0	37.0	88	33.8	0	1	315	0.00	30.204 
04:05	37.0	37.0	37.0	88	33.8	0	1	315	0.00	30.204 
04:10	37.0	37.0	37.0	88	33.8	0	1	315	0.00	30.204 
04:15	37.0	37.0	37.0	88	33.8	0	1	315	0.00	30.213 
04:20	37.0	37.0	37.0	88	33.8	0	1	315	0.00	30.213 
04:25	37.0	37.0	37.0	88	33.8	0	1	315	0.00	30.213 
04:30	36.9	36.9	36.9	88	33.7	0	0	---	0.00	30.215 
04:35	36.8	36.8	36.8	88	33.6	0	3	315	0.00	30.215 
04:40	36.8	36.8	36.8	88	33.6	0	2	315	0.00	30.215 
04:45	36.8	36.8	36.8	87	33.3	0	1	315	0.00	30.218 
04:50	36.6	36.6	36.6	87	33.1	0	1	315	0.00	30.218 
04:55	36.5	36.5	36.5	87	33.0	0	0	---	0.00	30.218 
05:00	36.3	36.3	36.3	87	32.8	0	1	315	0.00	30.221 
05:05	36.2	36.2	36.2	87	32.7	0	1	315	0.00	30.221 
05:10	36.2	36.2	36.2	87	32.7	0	1	315	0.00	30.221 
05:15	36.2	36.2	36.2	87	32.7	0	1	315	0.00	30.236 
05:20	36.0	36.0	36.0	86	32.2	0	0	---	0.00	30.236 
05:25	35.9	35.9	35.9	86	32.1	0	1	315	0.00	30.236 
05:30	35.8	35.8	35.8	86	32.0	0	1	315	0.00	30.239 
05:35	35.8	35.8	35.8	86	32.0	0	1	315	0.00	30.239 
05:40	35.8	35.8	35.8	85	31.7	0	1	315	0.00	30.239 
05:45	35.6	35.6	35.6	85	31.5	0	0	---	0.00	30.242 
05:50	35.6	35.6	35.6	85	31.5	0	1	315	0.00	30.242 
05:55	35.6	35.6	35.6	84	31.3	0	1	315	0.00	30.242 
06:00	35.6	35.6	35.6	84	31.3	0	0	---	0.00	30.248 
06:05	35.6	35.6	35.6	84	31.3	0	1	315	0.00	30.248 
06:10	35.6	35.6	35.6	83	31.0	0	1	315	0.00	30.248 
06:15	35.5	35.5	35.5	83	30.9	0	0	---	0.00	30.257 
06:20	35.5	35.5	35.5	83	30.9	0	1	315	0.00	30.257 
06:25	35.5	35.5	35.5	82	30.6	0	1	315	0.00	30.257 
06:30	35.5	35.5	35.5	82	30.6	0	1	315	0.00	30.260 
06:35	35.5	35.5	35.5	81	30.3	0	1	315	0.00	30.260 
06:40	35.5	35.5	35.5	81	30.3	0	1	315	0.00	30.260 
06:45	35.3	35.3	35.3	81	30.1	0	1	315	0.00	30.265 
06:50	35.3	35.3	35.3	81	30.1	0	1	315	0.00	30.265 
06:55	35.2	35.2	35.2	81	30.0	0	1	315	0.00	30.265 
07:00	35.2	35.2	35.2	81	30.0	0	0	---	0.00	30.273 
07:05	35.2	35.2	35.2	81	30.0	0	1	315	0.00	30.273 
07:10	35.0	35.0	35.0	81	29.8	0	1	315	0.00	30.273 
07:15	35.0	35.0	35.0	80	29.5	0	1	315	0.00	30.273 
07:20	35.0	35.0	35.0	80	29.5	0	1	315	0.00	30.273 
07:25	35.0	35.0	35.0	80	29.5	0	1	315	0.00	30.273 
07:30	34.9	34.9	34.9	80	29.4	0	1	315	0.00	30.276 
07:35	34.7	34.7	34.7	80	29.2	0	0	---	0.00	30.276 
07:40	34.9	34.9	34.9	81	29.7	0	1	315	0.00	30.276 
07:45	34.9	34.9	34.9	81	29.7	0	1	315	0.00	30.288 
07:50	35.2	35.2	35.2	81	30.0	0	1	315	0.00	30.288 
07:55	35.5	35.5	35.5	80	30.0	0	1	315	0.00	30.288 
08:00	35.9	35.9	35.9	79	30.0	0	1	315	0.00	30.293 
08:05	36.3	36.3	36.3	78	30.1	0	1	315	0.00	30.293 
08:10	36.6	36.6	36.6	77	30.1	0	1	315	0.00	30.293 
08:15	37.0	37.0	37.0	76	30.2	0	2	315	0.00	30.304 
08:20	37.5	37.5	37.5	75	30.3	1	3	315	0.00	30.304 
08:25	37.8	37.8	37.8	75	30.6	0	1	315	0.00	30.304 
08:30	38.0	38.0	38.0	73	30.1	0	0	---	0.00	30.310 
08:35	38.3	38.3	38.3	73	30.4	0	1	315	0.00	30.310 
08:40	38.8	38.8	38.8	72	30.6	1	2	315	0.00	30.310 
08:45	39.1	39.1	39.1	71	30.5	1	2	315	0.00	30.317 
08:50	39.5	39.5	39.5	70	30.5	1	3	315	0.00	30.317 
08:55	39.8	39.8	39.8	69	30.5	1	2	315	0.00	30.317 
09:00	40.2	40.2	40.2	69	30.9	1	2	315	0.00	30.317 
09:05	40.5	40.5	40.5	68	30.8	1	3	315	0.00	30.317 
09:10	40.6	40.6	40.6	66	30.1	1	3	315	0.00	30.317 
09:15	41.1	41.1	41.1	67	31.0	1	3	315	0.00	30.324 
09:20	41.5	41.5	41.5	66	31.0	1	3	225	0.00	30.324 
09:25	41.8	41.8	41.8	65	30.9	1	4	270	0.00	30.324 
09:30	41.8	41.8	41.8	66	31.3	1	3	338	0.00	30.330 
09:35	41.9	41.9	41.9	63	30.2	1	4	338	0.00	30.330 
09:40	41.9	41.9	41.9	63	30.2	1	5	315	0.00	30.330 
09:45	42.1	42.1	42.1	65	31.2	1	3	292	0.00	30.332 
09:50	42.5	42.5	42.5	64	31.2	1	4	292	0.00	30.332 
09:55	42.8	42.8	42.8	63	31.1	1	4	292	0.00	30.332 
10:00	42.8	42.8	42.8	62	30.7	2	5	315	0.00	30.331 
10:05	42.9	42.9	42.9	63	31.2	1	2	0	0.00	30.331 
10:10	42.9	42.9	42.9	61	30.4	1	5	338	0.00	30.331 
10:15	42.5	42.5	42.5	62	30.4	1	3	292	0.00	30.336 
10:20	42.5	42.5	42.5	61	30.0	2	5	315	0.00	30.336 
10:25	42.9	42.9	42.9	61	30.4	2	4	292	0.00	30.336 
10:30	43.2	43.2	43.2	59	29.9	2	4	315	0.00	30.336 
10:35	43.6	43.6	43.6	59	30.2	1	4	315	0.00	30.336 
10:40	43.6	43.6	43.6	57	29.4	2	6	315	0.00	30.336 
10:45	43.5	43.5	43.5	57	29.3	1	6	338	0.00	30.338 
10:50	43.8	43.8	43.8	58	30.0	2	7	315	0.00	30.338 
10:55	43.9	43.9	43.9	57	29.7	1	5	315	0.00	30.338 
11:00	43.8	43.8	43.8	54	28.3	2	4	315	0.00	30.349 
11:05	43.6	43.6	43.6	53	27.6	2	4	315	0.00	30.349 
11:10	43.6	43.6	43.6	52	27.1	2	4	315	0.00	30.349 
11:15	44.1	44.1	44.1	52	27.6	2	5	315	0.00	30.354 
11:20	44.3	44.3	44.3	52	27.8	2	5	292	0.00	30.354 
11:25	44.1	44.1	44.1	50	26.7	2	4	315	0.00	30.354 
11:30	44.1	44.1	44.1	53	28.1	2	5	315	0.00	30.355 
11:35	44.6	44.6	44.6	52	28.1	1	5	315	0.00	30.355 
11:40	44.8	44.8	44.8	50	27.3	1	3	338	0.00	30.355 
11:45	44.1	44.1	44.1	50	26.7	1	4	315	0.00	30.357 
11:50	44.1	44.1	44.1	50	26.7	1	4	315	0.00	30.357 
11:55	44.1	44.1	44.1	51	27.1	1	3	0	0.00	30.357 
12:00	44.3	44.3	44.3	54	28.7	2	5	248	0.00	30.352 
12:05	45.2	45.2	45.2	51	28.2	1	4	248	0.00	30.352 
12:10	44.3	44.3	44.3	50	26.8	2	6	338	0.00	30.352 
12:15	43.9	43.9	43.9	52	27.4	0	2	315	0.00	30.349 
12:20	44.3	44.3	44.3	51	27.3	2	6	315	0.00	30.349 
12:25	44.8	44.8	44.8	50	27.3	1	5	270	0.00	30.349 
12:30	45.4	45.4	45.4	50	27.9	1	3	338	0.00	30.339 
12:35	45.1	45.1	45.1	50	27.6	1	3	0	0.00	30.339 
12:40	45.5	45.5	45.5	49	27.5	1	2	0	0.00	30.339 
12:45	45.5	45.5	45.5	48	27.0	1	4	315	0.00	30.335 
12:50	45.7	45.7	45.7	49	27.6	1	3	315	0.00	30.335 
12:55	45.7	45.7	45.7	47	26.6	1	4	315	0.00	30.335 
13:00	45.4	45.4	45.4	47	26.4	1	3	315	0.00	30.336 
13:05	45.7	45.7	45.7	49	27.6	1	3	248	0.00	30.336 
13:10	45.7	45.7	45.7	48	27.1	1	3	338	0.00	30.336 
13:15	45.1	45.1	45.1	46	25.6	1	4	338	0.00	30.343 
13:20	45.4	45.4	45.4	48	26.9	2	5	315	0.00	30.343 
13:25	45.7	45.7	45.7	48	27.1	2	4	338	0.00	30.343 
13:30	46.1	46.1	46.1	48	27.5	1	3	270	0.00	30.341 
13:35	46.2	46.2	46.2	47	27.1	1	4	292	0.00	30.341 
13:40	46.2	46.2	46.2	47	27.1	1	5	292	0.00	30.341 
13:45	46.0	46.0	46.0	46	26.4	1	5	292	0.00	30.339 
13:50	45.4	45.4	45.4	47	26.4	1	3	315	0.00	30.339 
13:55	45.5	45.5	45.5	47	26.5	0	3	270	0.00	30.339 
14:00	45.7	45.7	45.7	46	26.1	1	4	315	0.00	30.339 
14:05	46.1	46.1	46.1	47	27.0	1	4	270	0.00	30.339 
14:10	46.4	46.4	46.4	48	27.8	2	4	270	0.00	30.339 
14:15	46.7	46.7	46.7	46	27.0	1	5	248	0.00	30.337 
14:20	46.5	46.5	46.5	46	26.8	2	4	270	0.00	30.337 
14:25	46.2	46.2	46.2	46	26.6	1	3	315	0.00	30.337 
14:30	46.4	46.4	46.4	46	26.8	0	3	270	0.00	30.332 
14:35	46.5	46.5	46.5	45	26.3	1	5	315	0.00	30.332 
14:40	46.4	46.4	46.4	46	26.8	1	4	292	0.00	30.332 
14:45	46.4	46.4	46.4	44	25.7	0	2	315	0.00	30.335 
14:50	46.2	46.2	46.2	46	26.6	1	5	248	0.00	30.335 
14:55	46.4	46.4	46.4	46	26.8	0	3	248	0.00	30.335 
15:00	46.5	46.5	46.5	46	26.8	1	5	0	0.00	30.333 
15:05	46.7	46.7	46.7	45	26.5	1	3	338	0.00	30.333 
15:10	46.7	46.7	46.7	46	27.0	0	2	338	0.00	30.333 
15:15	46.5	46.5	46.5	45	26.3	1	3	338	0.00	30.328 
15:20	46.5	46.5	46.5	46	26.8	0	1	338	0.00	30.328 
15:25	46.7	46.7	46.7	45	26.5	0	2	338	0.00	30.328 
15:30	46.8	46.8	46.8	43	25.5	0	2	338	0.00	30.331 
15:35	46.8	46.8	46.8	45	26.6	0	1	338	0.00	30.331 
15:40	46.8	46.8	46.8	45	26.6	0	3	225	0.00	30.331 
15:45	46.8	46.8	46.8	46	27.1	1	3	292	0.00	30.336 
15:50	46.5	46.5	46.5	45	26.3	0	2	292	0.00	30.336 
15:55	46.5	46.5	46.5	48	27.9	0	1	292	0.00	30.336 
16:00	46.7	46.7	46.7	46	27.0	0	1	292	0.00	30.336 
16:05	46.7	46.7	46.7	46	27.0	0	1	292	0.00	30.336 
16:10	46.5	46.5	46.5	46	26.8	0	1	292	0.00	30.336 
16:15	46.4	46.4	46.4	46	26.8	0	1	292	0.00	30.333 
16:20	46.4	46.4	46.4	46	26.8	0	1	292	0.00	30.333 
16:25	46.2	46.2	46.2	46	26.6	0	0	---	0.00	30.333 
16:30	46.2	46.2	46.2	46	26.6	0	1	292	0.00	30.335 
16:35	46.1	46.1	46.1	46	26.5	0	1	292	0.00	30.335 
16:40	46.1	46.1	46.1	46	26.5	0	2	292	0.00	30.335 
16:45	46.0	46.0	46.0	48	27.4	0	2	292	0.00	30.332 
16:50	45.8	45.8	45.8	47	26.7	0	1	292	0.00	30.332 
16:55	45.7	45.7	45.7	48	27.1	0	1	292	0.00	30.332 
17:00	45.4	45.4	45.4	48	26.9	0	1	292	0.00	30.332 
17:05	45.1	45.1	45.1	49	27.1	0	0	---	0.00	30.332 
17:10	44.8	44.8	44.8	49	26.8	0	1	292	0.00	30.332 
17:15	44.6	44.6	44.6	49	26.6	0	0	---	0.00	30.330 
17:20	44.3	44.3	44.3	50	26.8	0	0	---	0.00	30.330 
17:25	44.1	44.1	44.1	50	26.7	0	0	---	0.00	30.330 
17:30	43.8	43.8	43.8	51	26.9	0	0	---	0.00	30.338 
17:35	43.3	43.3	43.3	51	26.4	0	0	---	0.00	30.338 
17:40	43.1	43.1	43.1	53	27.1	0	0	---	0.00	30.338 
17:45	42.8	42.8	42.8	53	26.9	0	0	---	0.00	30.341 
17:50	42.5	42.5	42.5	54	27.0	0	0	---	0.00	30.341 
17:55	42.1	42.1	42.1	55	27.1	0	0	---	0.00	30.341 
18:00	41.6	41.6	41.6	55	26.6	0	0	---	0.00	30.340 
18:05	41.2	41.2	41.2	56	26.7	0	0	---	0.00	30.340 
18:10	40.8	40.8	40.8	57	26.8	0	0	---	0.00	30.340 
18:15	40.2	40.2	40.2	58	26.6	0	0	---	0.00	30.337 
18:20	39.8	39.8	39.8	61	27.5	0	0	---	0.00	30.337 
18:25	39.3	39.3	39.3	62	27.4	0	0	---	0.00	30.337 
18:30	38.9	38.9	38.9	62	27.0	0	0	---	0.00	30.333 
18:35	38.5	38.5	38.5	63	27.0	0	0	---	0.00	30.333 
18:40	38.2	38.2	38.2	64	27.1	0	0	---	0.00	30.333 
18:45	37.8	37.8	37.8	65	27.1	0	0	---	0.00	30.332 
18:50	37.5	37.5	37.5	67	27.6	0	0	---	0.00	30.332 
18:55	37.2	37.2	37.2	69	28.0	0	0	---	0.00	30.332 
19:00	36.9	36.9	36.9	70	28.0	0	0	---	0.00	30.335 
19:05	36.6	36.6	36.6	70	27.8	0	0	---	0.00	30.335 
19:10	36.3	36.3	36.3	72	28.2	0	0	---	0.00	30.335 
19:15	36.0	36.0	36.0	72	27.9	0	0	---	0.00	30.332 
19:20	35.9	35.9	35.9	73	28.1	0	0	---	0.00	30.332 
19:25	35.6	35.6	35.6	73	27.8	0	0	---	0.00	30.332 
19:30	35.3	35.3	35.3	74	27.9	0	0	---	0.00	30.334 
19:35	35.0	35.0	35.0	75	27.9	0	0	---	0.00	30.334 
19:40	34.7	34.7	34.7	75	27.6	0	0	---	0.00	30.334 
19:45	34.6	34.6	34.6	76	27.8	0	0	---	0.00	30.335 
19:50	34.3	34.3	34.3	76	27.5	0	0	---	0.00	30.335 
19:55	34.1	34.1	34.1	76	27.3	0	0	---	0.00	30.335 
20:00	34.0	34.0	34.0	77	27.6	0	0	---	0.00	30.335 
20:05	33.8	33.8	33.8	77	27.4	0	0	---	0.00	30.335 
20:10	33.5	33.5	33.5	77	27.1	0	0	---	0.00	30.335 
20:15	33.4	33.4	33.4	78	27.3	0	0	---	0.00	30.337 
20:20	33.1	33.1	33.1	78	27.0	0	0	---	0.00	30.337 
20:25	32.9	32.9	32.9	78	26.8	0	0	---	0.00	30.337 
20:30	32.8	32.8	32.8	79	27.0	0	0	---	0.00	30.334 
20:35	32.5	32.5	32.5	80	27.0	0	0	---	0.00	30.334 
20:40	32.4	32.4	32.4	80	26.9	0	0	---	0.00	30.334 
20:45	32.2	32.2	32.2	81	27.0	0	1	292	0.00	30.333 
20:50	32.1	32.1	32.1	81	26.9	0	0	---	0.00	30.333 
20:55	31.9	31.9	31.9	82	27.0	0	0	---	0.00	30.333 
21:00	31.9	31.9	31.9	82	27.0	0	0	---	0.00	30.334 
21:05	31.9	31.9	31.9	83	27.3	0	0	---	0.00	30.334 
21:10	32.1	32.1	32.1	84	27.8	0	0	---	0.00	30.334 
21:15	31.9	31.9	31.9	84	27.6	0	0	---	0.00	30.338 
21:20	31.9	31.9	31.9	84	27.6	0	0	---	0.00	30.338 
21:25	31.8	31.8	31.8	84	27.5	0	0	---	0.00	30.338 
21:30	31.8	31.8	31.8	84	27.5	0	0	---	0.00	30.343 
21:35	31.6	31.6	31.6	85	27.6	0	0	---	0.00	30.343 
21:40	31.6	31.6	31.6	85	27.6	0	0	---	0.00	30.343 
21:45	31.5	31.5	31.5	85	27.5	0	0	---	0.00	30.345 
21:50	31.5	31.5	31.5	86	27.8	0	0	---	0.00	30.345 
21:55	31.5	31.5	31.5	86	27.8	0	0	---	0.00	30.345 
22:00	31.5	31.5	31.5	87	28.1	0	0	---	0.00	30.345 
22:05	31.3	31.3	31.3	87	27.9	0	0	---	0.00	30.345 
22:10	31.3	31.3	31.3	87	27.9	0	0	---	0.00	30.345 
22:15	31.3	31.3	31.3	87	27.9	0	0	---	0.00	30.344 
22:20	31.2	31.2	31.2	88	28.1	0	0	---	0.00	30.344 
22:25	31.2	31.2	31.2	88	28.1	0	0	---	0.00	30.344 
22:30	31.3	31.3	31.3	88	28.2	0	0	---	0.00	30.345 
22:35	31.3	31.3	31.3	88	28.2	0	0	---	0.00	30.345 
22:40	31.3	31.3	31.3	89	28.4	0	0	---	0.00	30.345 
22:45	31.3	31.3	31.3	89	28.4	0	0	---	0.00	30.344 
22:50	31.3	31.3	31.3	89	28.4	0	0	---	0.00	30.344 
22:55	31.2	31.2	31.2	89	28.3	0	0	---	0.00	30.344 
23:00	31.2	31.2	31.2	89	28.3	0	0	---	0.00	30.345 
23:05	31.2	31.2	31.2	89	28.3	0	0	---	0.00	30.345 
23:10	31.2	31.2	31.2	89	28.3	0	0	---	0.00	30.345 
23:15	31.3	31.3	31.3	89	28.4	0	0	---	0.00	30.346 
23:20	31.3	31.3	31.3	89	28.4	0	0	---	0.00	30.346 
23:25	31.3	31.3	31.3	89	28.4	0	0	---	0.00	30.346 
23:30	31.3	31.3	31.3	89	28.4	0	0	---	0.00	30.345 
23:35	31.3	31.3	31.3	89	28.4	0	0	---	0.00	30.345 
23:40	31.2	31.2	31.2	89	28.3	0	0	---	0.00	30.345 
23:45	31.2	31.2	31.2	89	28.3	0	0	---	0.00	30.345 
23:50	31.0	31.0	31.0	89	28.1	0	0	---	0.00	30.345 
23:55	31.0	31.0	31.0	89	28.1	0	0	---	0.00	30.345 

CoCoRaHS
IN-AL-39
A2 Web Hosting
Creative Commons License
GoDaddy
search engine by freefind advanced

loaded 2018-11-18 11:15:56 • last modified 2010-11-18 10:43:29
Privacy PolicyDisclaimer
• wx.awcolley.com is powered by PmWiki v.2002016 •
• all content (unless otherwise noted) © 2018 A W Colley